Aleppo, Pennsylvania
Current Conditions -  °F | °C
As of 9:53 AM on Sunday 21 Dec 2014 (Local Time) from KHLG Reporting Station
Overcast Overcast  
Wind Chill: 30°   Ceiling: 2700
Heat Index: 30°   Visibility: 10mi
Dew Point: 21°   Wind: 0mph
Humidity: 69%   Direction: NA
Pressure: 30.31"   Gusts: NA
Location:  39.82°N, 80.45°W
Report Text: KHLG 211453Z 00000KT 10SM OVC027 M01/M06 A3031 RMK AO2 SLP281 T10111061 53003
Loading
Personal Weather Stations






























Interactive Weather Map New forecast layout! Learn more

10-Day Weather Forecast

Advertisements
Track Severe Weather on mobile